Time;durP1;ratioP1;P1;durP2;ratioP2;P2;SDS_P1;SDS_P2;PMS_P1;PMS_P2;Temp;Humidity;BMP_temperature;BMP_pressure;BME280_temperature;BME280_humidity;BME280_pressure;Samples;Min_cycle;Max_cycle;Signal;HPM_P1;HPM_P2
2021/03/06 00:01:31;;;;;;;17.30;5.85;;;;;;;;;;4994104;28;20045;-72
2021/03/06 00:03:57;;;;;;;25.20;7.00;;;;;;;;;;4978282;28;20065;-71
2021/03/06 00:06:23;;;;;;;15.73;7.15;;;;;;;;;;5011450;28;20046;-71
2021/03/06 00:08:49;;;;;;;26.75;7.45;;;;;;;;;;5012086;28;20104;-71
2021/03/06 00:11:16;;;;;;;16.52;6.65;;;;;;;;;;4994269;28;20044;-71
2021/03/06 00:13:42;;;;;;;18.92;7.57;;;;;;;;;;5006435;28;20050;-72
2021/03/06 00:16:08;;;;;;;24.67;7.97;;;;;;;;;;4994633;28;20560;-71
2021/03/06 00:18:34;;;;;;;18.20;7.78;;;;;;;;;;5011066;28;20072;-71
2021/03/06 00:21:00;;;;;;;18.30;7.20;;;;;;;;;;5011880;28;20042;-71
2021/03/06 00:23:26;;;;;;;17.58;7.68;;;;;;;;;;5010977;28;20437;-71
2021/03/06 00:25:52;;;;;;;22.35;7.82;;;;;;;;;;4994204;28;20069;-71
2021/03/06 00:28:19;;;;;;;21.92;7.57;;;;;;;;;;5011801;28;20069;-71
2021/03/06 00:30:45;;;;;;;12.95;6.35;;;;;;;;;;5011812;28;20038;-71
2021/03/06 00:33:12;;;;;;;19.23;7.82;;;;;;;;;;5011642;28;20069;-71
2021/03/06 00:35:38;;;;;;;18.83;6.63;;;;;;;;;;4993263;28;20045;-71
2021/03/06 00:38:04;;;;;;;19.25;7.10;;;;;;;;;;5014231;28;20555;-71
2021/03/06 00:40:31;;;;;;;15.55;6.70;;;;;;;;;;5014562;28;20065;-71
2021/03/06 00:42:57;;;;;;;21.33;7.82;;;;;;;;;;5015318;28;20054;-71
2021/03/06 00:45:23;;;;;;;26.33;8.18;;;;;;;;;;5014663;28;20104;-72
2021/03/06 00:47:49;;;;;;;19.63;7.90;;;;;;;;;;5015202;28;20042;-71
2021/03/06 00:50:28;;;;;;;17.00;7.75;;;;;;;;;;4997626;28;20141;-71
2021/03/06 00:52:54;;;;;;;24.20;8.30;;;;;;;;;;4997583;28;20038;-71
2021/03/06 00:55:20;;;;;;;25.90;9.50;;;;;;;;;;5014881;28;20125;-71
2021/03/06 00:57:47;;;;;;;21.73;8.57;;;;;;;;;;5014493;28;20132;-71
2021/03/06 01:00:13;;;;;;;23.10;8.00;;;;;;;;;;4997144;28;20046;-71
2021/03/06 01:02:39;;;;;;;19.35;6.93;;;;;;;;;;4997014;28;20054;-71
2021/03/06 01:05:06;;;;;;;20.13;7.47;;;;;;;;;;5014871;28;20069;-71
2021/03/06 01:07:32;;;;;;;17.70;7.40;;;;;;;;;;4974711;28;20048;-72
2021/03/06 01:09:58;;;;;;;14.20;7.10;;;;;;;;;;4995042;28;20133;-71
2021/03/06 01:12:25;;;;;;;24.00;8.07;;;;;;;;;;4993952;28;20057;-73
2021/03/06 01:14:51;;;;;;;16.98;6.90;;;;;;;;;;4977456;28;20042;-72
2021/03/06 01:17:17;;;;;;;14.88;6.85;;;;;;;;;;4998892;28;20053;-72
2021/03/06 01:19:43;;;;;;;18.27;6.50;;;;;;;;;;5014098;28;20050;-72
2021/03/06 01:22:09;;;;;;;21.45;6.63;;;;;;;;;;4997078;28;20048;-72
2021/03/06 01:24:36;;;;;;;17.30;6.85;;;;;;;;;;5008737;28;20046;-72
2021/03/06 01:27:02;;;;;;;22.70;7.43;;;;;;;;;;5014197;28;20050;-72
2021/03/06 01:29:29;;;;;;;17.63;6.57;;;;;;;;;;4996408;28;20046;-72
2021/03/06 01:31:55;;;;;;;25.70;7.00;;;;;;;;;;5014198;28;20038;-72
2021/03/06 01:34:21;;;;;;;15.45;6.43;;;;;;;;;;5014286;28;20076;-72
2021/03/06 01:36:47;;;;;;;27.58;7.93;;;;;;;;;;5013654;28;20046;-71
2021/03/06 01:39:14;;;;;;;19.80;7.45;;;;;;;;;;5014371;28;20046;-71
2021/03/06 01:41:41;;;;;;;22.00;7.15;;;;;;;;;;4979844;28;20144;-72
2021/03/06 01:44:07;;;;;;;23.02;7.15;;;;;;;;;;4996446;28;20038;-72
2021/03/06 01:46:33;;;;;;;22.00;7.00;;;;;;;;;;5013254;28;20065;-72
2021/03/06 01:49:00;;;;;;;23.90;6.68;;;;;;;;;;4979622;28;20136;-72
2021/03/06 01:51:27;;;;;;;20.23;8.07;;;;;;;;;;5014000;28;20469;-72
2021/03/06 01:53:53;;;;;;;21.98;7.65;;;;;;;;;;5013027;28;20080;-72
2021/03/06 01:56:19;;;;;;;22.67;8.10;;;;;;;;;;5013805;28;20050;-72
2021/03/06 01:58:46;;;;;;;24.70;7.20;;;;;;;;;;5013480;28;20480;-72
2021/03/06 02:01:12;;;;;;;19.08;6.60;;;;;;;;;;5013823;28;20046;-72
2021/03/06 02:03:38;;;;;;;24.15;6.18;;;;;;;;;;5011167;28;20470;-72
2021/03/06 02:06:04;;;;;;;30.20;8.15;;;;;;;;;;5013450;28;20038;-72
2021/03/06 02:08:31;;;;;;;25.58;6.32;;;;;;;;;;5013574;28;20049;-71
2021/03/06 02:10:57;;;;;;;20.48;6.85;;;;;;;;;;4996045;28;20042;-72
2021/03/06 02:13:35;;;;;;;23.35;6.72;;;;;;;;;;4996008;28;20041;-71
2021/03/06 02:16:01;;;;;;;24.63;6.57;;;;;;;;;;4995762;28;20073;-72
2021/03/06 02:18:55;;;;;;;14.18;6.43;;;;;;;;;;5013317;28;20042;-71
2021/03/06 02:21:21;;;;;;;23.80;6.20;;;;;;;;;;5010311;28;20413;-72
2021/03/06 02:24:06;;;;;;;20.45;5.65;;;;;;;;;;5012781;28;20049;-72
2021/03/06 02:26:50;;;;;;;15.73;5.20;;;;;;;;;;5010911;28;20469;-72
2021/03/06 02:29:55;;;;;;;14.35;5.88;;;;;;;;;;5011720;28;20576;-72
2021/03/06 02:32:21;;;;;;;;;;;;;;;;;;4952948;29;20534;-72
2021/03/06 02:34:51;;;;;;;16.60;6.10;;;;;;;;;;4951849;29;20313;-72
2021/03/06 02:37:19;;;;;;;16.95;6.00;;;;;;;;;;4982298;28;20054;-72
2021/03/06 02:39:46;;;;;;;17.55;5.75;;;;;;;;;;5012523;28;20049;-72
2021/03/06 02:42:17;;;;;;;19.52;5.45;;;;;;;;;;5013010;28;20065;-72
2021/03/06 02:44:44;;;;;;;19.73;5.22;;;;;;;;;;5012407;28;20056;-72
2021/03/06 02:47:10;;;;;;;16.15;5.43;;;;;;;;;;5012801;28;20108;-72
2021/03/06 02:49:36;;;;;;;17.75;5.30;;;;;;;;;;5012311;28;20038;-74
2021/03/06 02:52:03;;;;;;;23.02;4.70;;;;;;;;;;5012838;28;20045;-72
2021/03/06 02:54:29;;;;;;;13.20;4.38;;;;;;;;;;5012536;28;20081;-72
2021/03/06 02:56:55;;;;;;;20.23;5.30;;;;;;;;;;5008187;28;20366;-72
2021/03/06 02:59:28;;;;;;;20.92;4.95;;;;;;;;;;5010080;28;20053;-72
2021/03/06 03:02:03;;;;;;;19.15;5.57;;;;;;;;;;5011382;28;20077;-73
2021/03/06 03:04:48;;;;;;;24.45;5.28;;;;;;;;;;5012425;28;20062;-73
2021/03/06 03:07:20;;;;;;;22.10;5.80;;;;;;;;;;5012884;28;20095;-72
2021/03/06 03:09:49;;;;;;;14.82;4.50;;;;;;;;;;4994439;28;20049;-73
2021/03/06 03:12:20;;;;;;;18.63;4.75;;;;;;;;;;5012645;28;20049;-72
2021/03/06 03:14:52;;;;;;;19.30;5.63;;;;;;;;;;4994439;28;20117;-72
2021/03/06 03:17:30;;;;;;;18.95;5.72;;;;;;;;;;5012385;28;20042;-72
2021/03/06 03:19:58;;;;;;;23.70;5.30;;;;;;;;;;4994097;28;20099;-72
2021/03/06 03:22:26;;;;;;;23.15;5.22;;;;;;;;;;5012528;28;20073;-72
2021/03/06 03:24:52;;;;;;;17.17;5.57;;;;;;;;;;4994085;28;20069;-72
2021/03/06 03:27:20;;;;;;;18.55;5.53;;;;;;;;;;5011747;28;20111;-72
2021/03/06 03:29:46;;;;;;;24.70;6.25;;;;;;;;;;5011956;28;20512;-72
2021/03/06 03:32:13;;;;;;;16.23;5.70;;;;;;;;;;5012472;28;20161;-72
2021/03/06 03:34:40;;;;;;;16.55;6.93;;;;;;;;;;5012226;28;20038;-72
2021/03/06 03:37:09;;;;;;;17.70;6.03;;;;;;;;;;5012097;28;20042;-72
2021/03/06 03:39:36;;;;;;;26.80;7.13;;;;;;;;;;5012466;28;20132;-72
2021/03/06 03:42:03;;;;;;;14.35;5.65;;;;;;;;;;5011750;28;20350;-72
2021/03/06 03:44:29;;;;;;;20.90;6.63;;;;;;;;;;4994576;28;20045;-72
2021/03/06 03:46:55;;;;;;;28.77;6.55;;;;;;;;;;5011422;28;20042;-72
2021/03/06 03:49:22;;;;;;;13.90;5.00;;;;;;;;;;5011988;28;20081;-73
2021/03/06 03:51:49;;;;;;;15.70;5.60;;;;;;;;;;5006377;28;20042;-73
2021/03/06 03:54:16;;;;;;;19.00;5.25;;;;;;;;;;4994595;28;20045;-72
2021/03/06 03:56:43;;;;;;;19.00;5.65;;;;;;;;;;4994324;28;20046;-72
2021/03/06 03:59:09;;;;;;;18.40;5.57;;;;;;;;;;5012126;28;20458;-73
2021/03/06 04:01:39;;;;;;;18.83;5.82;;;;;;;;;;5012055;28;20496;-72
2021/03/06 04:04:06;;;;;;;22.38;5.47;;;;;;;;;;5011201;28;20050;-72
2021/03/06 04:06:33;;;;;;;15.30;5.22;;;;;;;;;;5011828;28;20053;-72
2021/03/06 04:08:59;;;;;;;20.67;4.93;;;;;;;;;;5011163;28;20096;-72
2021/03/06 04:11:25;;;;;;;22.65;6.65;;;;;;;;;;5011697;28;20125;-72
2021/03/06 04:13:52;;;;;;;14.82;4.60;;;;;;;;;;5014976;28;20038;-72
2021/03/06 04:16:18;;;;;;;20.45;5.65;;;;;;;;;;4998406;28;20096;-72
2021/03/06 04:18:44;;;;;;;17.40;5.95;;;;;;;;;;5015765;28;20496;-72
2021/03/06 04:21:10;;;;;;;17.77;4.68;;;;;;;;;;4997583;28;20046;-72
2021/03/06 04:23:36;;;;;;;13.52;5.03;;;;;;;;;;5015821;28;20049;-73
2021/03/06 04:26:02;;;;;;;19.83;5.43;;;;;;;;;;4996940;28;20246;-73
2021/03/06 04:28:29;;;;;;;18.13;5.22;;;;;;;;;;5015000;28;20054;-73
2021/03/06 04:30:55;;;;;;;17.08;5.78;;;;;;;;;;5015016;28;20034;-72
2021/03/06 04:33:21;;;;;;;17.88;5.55;;;;;;;;;;4997793;28;20049;-72
2021/03/06 04:35:47;;;;;;;18.23;5.10;;;;;;;;;;5015586;28;20489;-72
2021/03/06 04:38:13;;;;;;;15.55;4.97;;;;;;;;;;4997776;28;20474;-73
2021/03/06 04:40:39;;;;;;;11.98;4.70;;;;;;;;;;5015589;28;20524;-72
2021/03/06 04:43:05;;;;;;;18.75;4.35;;;;;;;;;;4997106;28;20061;-72
2021/03/06 04:45:32;;;;;;;24.67;5.65;;;;;;;;;;5009891;28;20049;-73
2021/03/06 04:47:58;;;;;;;18.52;4.50;;;;;;;;;;4996825;28;20092;-73
2021/03/06 04:50:24;;;;;;;13.85;4.57;;;;;;;;;;5015101;28;20049;-72
2021/03/06 04:52:50;;;;;;;20.92;5.15;;;;;;;;;;5014449;28;20042;-75
2021/03/06 04:55:16;;;;;;;17.55;4.57;;;;;;;;;;5014503;28;20446;-72
2021/03/06 04:57:42;;;;;;;20.98;5.50;;;;;;;;;;5014766;28;20496;-72
2021/03/06 05:00:08;;;;;;;19.00;5.13;;;;;;;;;;5014309;28;20045;-73
2021/03/06 05:02:35;;;;;;;20.38;4.85;;;;;;;;;;5014587;28;20052;-72
2021/03/06 05:05:02;;;;;;;14.93;4.70;;;;;;;;;;5014228;28;20054;-73
2021/03/06 05:07:28;;;;;;;12.23;4.38;;;;;;;;;;4996967;28;20068;-72
2021/03/06 05:09:55;;;;;;;15.88;5.00;;;;;;;;;;5014148;28;20045;-73
2021/03/06 05:12:21;;;;;;;12.65;4.80;;;;;;;;;;5014615;28;20119;-72
2021/03/06 05:14:47;;;;;;;15.20;4.07;;;;;;;;;;5013346;28;20439;-73
2021/03/06 05:17:13;;;;;;;14.35;5.10;;;;;;;;;;4995758;28;20553;-72
2021/03/06 05:19:39;;;;;;;17.13;4.93;;;;;;;;;;5014110;28;20050;-72
2021/03/06 05:22:05;;;;;;;10.48;4.47;;;;;;;;;;5013927;28;20126;-73
2021/03/06 05:24:32;;;;;;;10.07;4.25;;;;;;;;;;5013158;28;20116;-73
2021/03/06 05:27:01;;;;;;;18.02;4.50;;;;;;;;;;5013450;28;20073;-72
2021/03/06 05:29:29;;;;;;;18.13;5.03;;;;;;;;;;5013859;28;20128;-72
2021/03/06 05:31:55;;;;;;;18.25;4.90;;;;;;;;;;5014438;28;20041;-72
2021/03/06 05:34:22;;;;;;;13.98;4.10;;;;;;;;;;5014213;28;20066;-72
2021/03/06 05:36:49;;;;;;;21.73;6.45;;;;;;;;;;5014373;28;20041;-72
2021/03/06 05:39:15;;;;;;;16.98;4.82;;;;;;;;;;4991230;28;20493;-72
2021/03/06 05:41:41;;;;;;;16.67;5.15;;;;;;;;;;5013000;28;20400;-72
2021/03/06 05:44:07;;;;;;;10.90;4.07;;;;;;;;;;5013567;28;20038;-73
2021/03/06 05:46:34;;;;;;;15.38;4.43;;;;;;;;;;5013783;28;20038;-72
2021/03/06 05:49:00;;;;;;;11.77;4.78;;;;;;;;;;5013510;28;20042;-73
2021/03/06 05:51:26;;;;;;;10.90;4.80;;;;;;;;;;5013699;28;20054;-72
2021/03/06 05:53:53;;;;;;;17.05;4.90;;;;;;;;;;4995999;28;20125;-72
2021/03/06 05:56:20;;;;;;;12.48;5.03;;;;;;;;;;4994881;28;20126;-72
2021/03/06 05:58:48;;;;;;;10.25;4.68;;;;;;;;;;5013477;28;20050;-72
2021/03/06 06:01:15;;;;;;;15.30;4.75;;;;;;;;;;5013157;28;20068;-72
2021/03/06 06:03:42;;;;;;;10.65;4.75;;;;;;;;;;5013861;28;20037;-72
2021/03/06 06:06:13;;;;;;;13.77;6.35;;;;;;;;;;4995013;28;20050;-72
2021/03/06 06:08:39;;;;;;;8.88;4.60;;;;;;;;;;5013545;28;20052;-71
2021/03/06 06:11:05;;;;;;;19.30;5.70;;;;;;;;;;5013157;28;20042;-72
2021/03/06 06:13:32;;;;;;;20.13;5.80;;;;;;;;;;5013572;28;20038;-72
2021/03/06 06:15:58;;;;;;;15.07;7.93;;;;;;;;;;5013476;28;20041;-72
2021/03/06 06:18:25;;;;;;;20.00;7.70;;;;;;;;;;5012667;28;20041;-72
2021/03/06 06:20:52;;;;;;;21.58;8.05;;;;;;;;;;5013667;28;20041;-72
2021/03/06 06:23:18;;;;;;;19.20;7.72;;;;;;;;;;5012615;28;20038;-72
2021/03/06 06:25:45;;;;;;;16.15;7.88;;;;;;;;;;5013429;28;20044;-72
2021/03/06 06:28:11;;;;;;;17.23;7.68;;;;;;;;;;5012418;28;20393;-72
2021/03/06 06:30:37;;;;;;;20.13;7.90;;;;;;;;;;5013342;28;20038;-72
2021/03/06 06:33:03;;;;;;;21.80;8.98;;;;;;;;;;5011271;28;20046;-74
2021/03/06 06:35:38;;;;;;;20.20;7.65;;;;;;;;;;5009816;28;20058;-72
2021/03/06 06:38:06;;;;;;;17.40;6.40;;;;;;;;;;5012443;28;20041;-73
2021/03/06 06:40:33;;;;;;;20.85;7.30;;;;;;;;;;5013230;28;20124;-72
2021/03/06 06:42:59;;;;;;;11.30;6.20;;;;;;;;;;5012719;28;20474;-72
2021/03/06 06:45:35;;;;;;;17.52;6.40;;;;;;;;;;4994512;28;20045;-72
2021/03/06 06:48:08;;;;;;;18.63;5.72;;;;;;;;;;5013129;28;20473;-72
2021/03/06 06:50:34;;;;;;;11.97;5.20;;;;;;;;;;5012995;28;20038;-72
2021/03/06 06:53:00;;;;;;;12.18;5.90;;;;;;;;;;5012740;28;20108;-71
2021/03/06 06:55:43;;;;;;;12.48;5.38;;;;;;;;;;5012408;28;20053;-71
2021/03/06 06:58:09;;;;;;;13.85;4.88;;;;;;;;;;5012445;28;20038;-71
2021/03/06 07:00:36;;;;;;;11.65;3.72;;;;;;;;;;5012540;28;20365;-71
2021/03/06 07:03:04;;;;;;;6.35;2.72;;;;;;;;;;5012712;28;20038;-71
2021/03/06 07:05:32;;;;;;;8.65;3.17;;;;;;;;;;5012256;28;20034;-71
2021/03/06 07:07:59;;;;;;;8.13;2.70;;;;;;;;;;4995162;28;20077;-71
2021/03/06 07:10:32;;;;;;;6.80;2.92;;;;;;;;;;5011688;28;20435;-71
2021/03/06 07:13:00;;;;;;;9.93;3.10;;;;;;;;;;5012853;28;20037;-71
2021/03/06 07:15:27;;;;;;;8.30;2.47;;;;;;;;;;5011925;28;20042;-71
2021/03/06 07:17:54;;;;;;;6.15;2.20;;;;;;;;;;5012433;28;20041;-71
2021/03/06 07:20:20;;;;;;;9.85;2.80;;;;;;;;;;4994431;28;20104;-72
2021/03/06 07:22:47;;;;;;;6.18;2.10;;;;;;;;;;5012697;28;20053;-71
2021/03/06 07:25:13;;;;;;;9.20;2.20;;;;;;;;;;5011963;28;20037;-72
2021/03/06 07:27:41;;;;;;;5.68;2.28;;;;;;;;;;5006982;28;20045;-71
2021/03/06 07:30:08;;;;;;;4.47;2.13;;;;;;;;;;5011726;28;20450;-72
2021/03/06 07:32:37;;;;;;;8.43;2.08;;;;;;;;;;5000397;28;20042;-72
2021/03/06 07:35:05;;;;;;;10.07;2.45;;;;;;;;;;5012328;28;20110;-71
2021/03/06 07:37:31;;;;;;;5.82;2.40;;;;;;;;;;5000216;28;20270;-71
2021/03/06 07:39:58;;;;;;;6.90;2.08;;;;;;;;;;4992990;28;20039;-71
2021/03/06 07:42:43;;;;;;;10.75;2.50;;;;;;;;;;4992119;28;20042;-72
2021/03/06 07:45:28;;;;;;;5.97;2.95;;;;;;;;;;4995151;28;20487;-72
2021/03/06 07:48:07;;;;;;;6.43;3.05;;;;;;;;;;5011816;28;20045;-71
2021/03/06 07:50:34;;;;;;;8.98;3.25;;;;;;;;;;4978185;28;20157;-72
2021/03/06 07:53:02;;;;;;;7.90;3.17;;;;;;;;;;5011855;28;20057;-72
2021/03/06 07:55:29;;;;;;;4.68;2.30;;;;;;;;;;5011135;28;20046;-72
2021/03/06 07:58:03;;;;;;;7.70;2.97;;;;;;;;;;5012278;28;20476;-72
2021/03/06 08:00:41;;;;;;;7.43;2.60;;;;;;;;;;4993933;28;20042;-72
2021/03/06 08:03:34;;;;;;;12.70;3.20;;;;;;;;;;5012537;28;20369;-72
2021/03/06 08:06:01;;;;;;;6.20;2.67;;;;;;;;;;5012132;28;20462;-71
2021/03/06 08:08:34;;;;;;;7.30;2.47;;;;;;;;;;4993639;28;20042;-72
2021/03/06 08:11:04;;;;;;;7.05;3.00;;;;;;;;;;5011859;28;20033;-73
2021/03/06 08:13:38;;;;;;;6.88;3.00;;;;;;;;;;5010936;28;20044;-72
2021/03/06 08:19:07;;;;;;;35.65;4.32;;;;;;;;;;5011751;28;20126;-72
2021/03/06 08:21:40;;;;;;;8.63;2.90;;;;;;;;;;5011292;28;20050;-72
2021/03/06 08:24:18;;;;;;;10.73;3.07;;;;;;;;;;5012003;28;20038;-72
2021/03/06 08:27:11;;;;;;;8.55;3.08;;;;;;;;;;4994480;28;20038;-72
2021/03/06 08:29:38;;;;;;;8.68;3.30;;;;;;;;;;5010733;28;20054;-72
2021/03/06 08:32:04;;;;;;;10.70;3.33;;;;;;;;;;5012099;28;20049;-72
2021/03/06 08:34:33;;;;;;;12.43;3.08;;;;;;;;;;5011318;28;20038;-70
2021/03/06 08:37:24;;;;;;;8.85;2.72;;;;;;;;;;5011951;28;20358;-70
2021/03/06 08:39:58;;;;;;;6.65;2.78;;;;;;;;;;5011990;28;20041;-71
2021/03/06 08:42:25;;;;;;;10.82;2.45;;;;;;;;;;5010867;28;20398;-71
2021/03/06 08:44:52;;;;;;;12.48;2.58;;;;;;;;;;4993654;28;20041;-70
2021/03/06 08:47:29;;;;;;;9.38;3.08;;;;;;;;;;5010865;28;20141;-72
2021/03/06 08:49:57;;;;;;;8.57;2.60;;;;;;;;;;5011579;28;20128;-71
2021/03/06 08:52:24;;;;;;;7.22;2.42;;;;;;;;;;5010945;28;20444;-71
2021/03/06 08:54:50;;;;;;;10.10;2.53;;;;;;;;;;4993823;28;20045;-70
2021/03/06 08:57:23;;;;;;;9.30;2.75;;;;;;;;;;5011528;28;20038;-70
2021/03/06 08:59:50;;;;;;;9.98;1.92;;;;;;;;;;5013506;28;20046;-70
2021/03/06 09:02:17;;;;;;;8.65;1.85;;;;;;;;;;5015045;28;20038;-70
2021/03/06 09:04:43;;;;;;;6.93;1.67;;;;;;;;;;5013935;28;20049;-70
2021/03/06 09:07:24;;;;;;;8.00;1.60;;;;;;;;;;5014641;28;20377;-70
2021/03/06 09:09:51;;;;;;;5.88;2.00;;;;;;;;;;5014616;28;20046;-70
2021/03/06 09:12:17;;;;;;;6.20;1.80;;;;;;;;;;5014506;28;20045;-70
2021/03/06 09:14:43;;;;;;;6.07;1.80;;;;;;;;;;5013784;28;20436;-68
2021/03/06 09:17:10;;;;;;;3.50;1.20;;;;;;;;;;5014712;28;20042;-70
2021/03/06 09:19:36;;;;;;;4.80;1.35;;;;;;;;;;5013545;28;20046;-70
2021/03/06 09:22:04;;;;;;;7.63;2.05;;;;;;;;;;4991404;28;20046;-71
2021/03/06 09:24:46;;;;;;;4.55;1.10;;;;;;;;;;5014016;28;20045;-70
2021/03/06 09:27:12;;;;;;;5.18;1.38;;;;;;;;;;5014384;28;20096;-71
2021/03/06 09:29:38;;;;;;;4.50;1.17;;;;;;;;;;4996086;28;20092;-71
2021/03/06 09:32:05;;;;;;;5.30;1.40;;;;;;;;;;5014274;28;20107;-71
2021/03/06 09:34:31;;;;;;;8.93;1.40;;;;;;;;;;5013899;28;20046;-71
2021/03/06 09:36:58;;;;;;;3.42;0.95;;;;;;;;;;5014536;28;20038;-71
2021/03/06 09:39:25;;;;;;;6.15;1.00;;;;;;;;;;5014028;28;20447;-72
2021/03/06 09:41:51;;;;;;;4.30;1.00;;;;;;;;;;5014382;28;20042;-71
2021/03/06 09:44:18;;;;;;;4.68;1.27;;;;;;;;;;5013842;28;20042;-71
2021/03/06 09:46:44;;;;;;;1.83;0.60;;;;;;;;;;5013498;28;20375;-71
2021/03/06 09:49:14;;;;;;;3.75;0.80;;;;;;;;;;5014293;28;20137;-71
2021/03/06 09:51:47;;;;;;;5.63;0.85;;;;;;;;;;4996125;28;20401;-71
2021/03/06 09:54:17;;;;;;;4.82;0.75;;;;;;;;;;5013996;28;20129;-71
2021/03/06 09:56:47;;;;;;;4.22;0.82;;;;;;;;;;5013490;28;20137;-71
2021/03/06 09:59:13;;;;;;;5.07;0.85;;;;;;;;;;4996646;28;20053;-71
2021/03/06 10:01:39;;;;;;;1.67;0.70;;;;;;;;;;4995527;28;20409;-71
2021/03/06 10:04:24;;;;;;;4.50;1.00;;;;;;;;;;5013705;28;20073;-71
2021/03/06 10:06:52;;;;;;;9.57;1.45;;;;;;;;;;5013246;28;20049;-71
2021/03/06 10:09:19;;;;;;;6.93;1.27;;;;;;;;;;5013505;28;20037;-71
2021/03/06 10:11:46;;;;;;;12.98;1.33;;;;;;;;;;5013010;28;20421;-71
2021/03/06 10:14:17;;;;;;;7.10;1.80;;;;;;;;;;5013707;28;20505;-71
2021/03/06 10:16:56;;;;;;;5.72;1.35;;;;;;;;;;5007367;28;20088;-71
2021/03/06 10:19:23;;;;;;;5.82;1.40;;;;;;;;;;5013447;28;20398;-71
2021/03/06 10:21:59;;;;;;;4.90;1.23;;;;;;;;;;5013025;28;20065;-72
2021/03/06 10:24:26;;;;;;;5.80;1.50;;;;;;;;;;4995591;28;20072;-71
2021/03/06 10:26:59;;;;;;;6.90;1.65;;;;;;;;;;5012856;28;20092;-71
2021/03/06 10:29:26;;;;;;;5.03;1.70;;;;;;;;;;5013119;28;20516;-71
2021/03/06 10:32:03;;;;;;;6.28;2.13;;;;;;;;;;5012494;28;20645;-71
2021/03/06 10:34:30;;;;;;;5.93;1.60;;;;;;;;;;5013417;28;20045;-71
2021/03/06 10:37:09;;;;;;;7.63;1.98;;;;;;;;;;5013327;28;20042;-71
2021/03/06 10:39:49;;;;;;;7.60;1.92;;;;;;;;;;5009639;28;20120;-71
2021/03/06 10:42:15;;;;;;;4.75;1.95;;;;;;;;;;5012496;28;20176;-71
2021/03/06 10:44:42;;;;;;;3.95;1.33;;;;;;;;;;5012545;28;20049;-72
2021/03/06 10:47:09;;;;;;;5.38;1.83;;;;;;;;;;4979210;28;20050;-71
2021/03/06 10:49:39;;;;;;;5.55;1.55;;;;;;;;;;5012568;28;20097;-72
2021/03/06 10:52:05;;;;;;;7.60;2.20;;;;;;;;;;5013036;28;20046;-71
2021/03/06 10:54:48;;;;;;;6.03;1.80;;;;;;;;;;5012325;28;20049;-71
2021/03/06 10:57:14;;;;;;;4.68;1.80;;;;;;;;;;5012850;28;20100;-71
2021/03/06 10:59:40;;;;;;;4.97;1.40;;;;;;;;;;5011913;28;20042;-71
2021/03/06 11:02:06;;;;;;;8.68;1.50;;;;;;;;;;4994925;28;20053;-71
2021/03/06 11:04:36;;;;;;;4.95;1.55;;;;;;;;;;5012800;28;20048;-71
2021/03/06 11:07:07;;;;;;;6.95;1.23;;;;;;;;;;5012729;28;20496;-71
2021/03/06 11:09:36;;;;;;;9.20;1.70;;;;;;;;;;4993630;28;20128;-72
2021/03/06 11:12:22;;;;;;;6.82;1.60;;;;;;;;;;5008993;28;20134;-71
2021/03/06 11:15:07;;;;;;;4.78;1.27;;;;;;;;;;5011835;28;20485;-71
2021/03/06 11:17:33;;;;;;;5.47;1.83;;;;;;;;;;5012640;28;20569;-71
2021/03/06 11:19:59;;;;;;;7.38;2.08;;;;;;;;;;5011631;28;20481;-71
2021/03/06 11:22:26;;;;;;;7.78;1.80;;;;;;;;;;5011524;28;20137;-71
2021/03/06 11:24:52;;;;;;;3.53;1.73;;;;;;;;;;5011588;28;20046;-71
2021/03/06 11:27:18;;;;;;;4.30;1.77;;;;;;;;;;5011992;28;20404;-71
2021/03/06 11:29:45;;;;;;;9.98;2.20;;;;;;;;;;4993755;28;20516;-71
2021/03/06 11:32:11;;;;;;;4.88;1.77;;;;;;;;;;5012355;28;20046;-71
2021/03/06 11:34:37;;;;;;;7.80;2.20;;;;;;;;;;5012173;28;20038;-72
2021/03/06 11:37:03;;;;;;;11.75;2.10;;;;;;;;;;5012171;28;20088;-71
2021/03/06 11:39:29;;;;;;;8.43;2.08;;;;;;;;;;5012081;28;20446;-71
2021/03/06 11:41:56;;;;;;;5.03;1.73;;;;;;;;;;4994260;28;20050;-71
2021/03/06 11:44:22;;;;;;;5.85;1.70;;;;;;;;;;5012071;28;20149;-71
2021/03/06 11:46:48;;;;;;;6.78;2.10;;;;;;;;;;5011513;28;20045;-71
2021/03/06 11:49:14;;;;;;;5.30;1.70;;;;;;;;;;5012240;28;20401;-71
2021/03/06 11:51:40;;;;;;;9.93;2.03;;;;;;;;;;5011782;28;20045;-72
2021/03/06 11:54:06;;;;;;;7.63;1.70;;;;;;;;;;5011729;28;20049;-71
2021/03/06 11:56:33;;;;;;;6.93;2.00;;;;;;;;;;5012077;28;20120;-71
2021/03/06 11:58:59;;;;;;;9.13;2.00;;;;;;;;;;5011518;28;20057;-71
2021/03/06 12:01:25;;;;;;;6.22;2.45;;;;;;;;;;5011864;28;20046;-71
2021/03/06 12:03:53;;;;;;;5.18;1.88;;;;;;;;;;5008419;28;20041;-71
2021/03/06 12:06:19;;;;;;;3.03;1.50;;;;;;;;;;5009369;28;20073;-71
2021/03/06 12:08:46;;;;;;;9.93;1.90;;;;;;;;;;5011255;28;20049;-72
2021/03/06 12:11:13;;;;;;;13.38;2.40;;;;;;;;;;5011748;28;20050;-71
2021/03/06 12:13:39;;;;;;;4.72;1.63;;;;;;;;;;5011893;28;20074;-71
2021/03/06 12:16:06;;;;;;;11.18;2.65;;;;;;;;;;4993594;28;20072;-71
2021/03/06 12:18:32;;;;;;;6.38;1.90;;;;;;;;;;5011896;28;20050;-71
2021/03/06 12:20:58;;;;;;;12.05;2.08;;;;;;;;;;5010935;28;20048;-71
2021/03/06 12:23:24;;;;;;;6.10;1.23;;;;;;;;;;5011663;28;20038;-71
2021/03/06 12:25:50;;;;;;;5.25;1.42;;;;;;;;;;5011278;28;20473;-71
2021/03/06 12:28:17;;;;;;;4.13;1.30;;;;;;;;;;5011382;28;20074;-71
2021/03/06 12:30:43;;;;;;;4.78;1.52;;;;;;;;;;4994078;28;20073;-71
2021/03/06 12:33:09;;;;;;;9.45;1.60;;;;;;;;;;4994987;28;20402;-71
2021/03/06 12:35:35;;;;;;;9.30;2.30;;;;;;;;;;4997804;28;20132;-71
2021/03/06 12:38:02;;;;;;;6.72;1.92;;;;;;;;;;5014620;28;20050;-71
2021/03/06 12:40:28;;;;;;;9.52;2.00;;;;;;;;;;5014992;28;20104;-71
2021/03/06 12:42:54;;;;;;;8.25;1.98;;;;;;;;;;4996954;28;20041;-71
2021/03/06 12:45:20;;;;;;;6.97;1.30;;;;;;;;;;5015326;28;20077;-71
2021/03/06 12:47:46;;;;;;;2.95;1.20;;;;;;;;;;5014429;28;20092;-72
2021/03/06 12:50:12;;;;;;;5.57;1.27;;;;;;;;;;5015397;28;20045;-71
2021/03/06 12:52:39;;;;;;;6.90;1.95;;;;;;;;;;5015031;28;20050;-71
2021/03/06 12:55:06;;;;;;;8.68;2.50;;;;;;;;;;5013904;28;20046;-71
2021/03/06 12:57:32;;;;;;;7.15;1.80;;;;;;;;;;5014217;28;20132;-73
2021/03/06 12:59:58;;;;;;;4.72;1.55;;;;;;;;;;5009979;28;20038;-71
2021/03/06 13:02:24;;;;;;;6.10;1.80;;;;;;;;;;5014967;28;20038;-71
2021/03/06 13:04:50;;;;;;;6.72;1.30;;;;;;;;;;5014405;28;20539;-72
2021/03/06 13:07:16;;;;;;;4.07;1.60;;;;;;;;;;4997298;28;20073;-71
2021/03/06 13:09:43;;;;;;;8.10;1.30;;;;;;;;;;4996938;28;20496;-71
2021/03/06 13:12:09;;;;;;;6.53;1.50;;;;;;;;;;5014021;28;20476;-71
2021/03/06 13:14:35;;;;;;;5.82;1.58;;;;;;;;;;5014683;28;20046;-71
2021/03/06 13:17:02;;;;;;;6.65;1.23;;;;;;;;;;5011768;28;20444;-71
2021/03/06 13:19:28;;;;;;;8.18;2.00;;;;;;;;;;5014040;28;20046;-71
2021/03/06 13:21:54;;;;;;;5.90;1.25;;;;;;;;;;4996408;28;20104;-71
2021/03/06 13:24:20;;;;;;;5.95;2.05;;;;;;;;;;5014397;28;20115;-70
2021/03/06 13:26:46;;;;;;;9.13;2.05;;;;;;;;;;5014079;28;20046;-72
2021/03/06 13:29:13;;;;;;;6.78;2.20;;;;;;;;;;5013738;28;20062;-71
2021/03/06 13:31:40;;;;;;;8.40;1.48;;;;;;;;;;5014601;28;20473;-71
2021/03/06 13:34:06;;;;;;;4.25;1.35;;;;;;;;;;5013699;28;20136;-71
2021/03/06 13:36:32;;;;;;;5.22;1.50;;;;;;;;;;5014249;28;20426;-71
2021/03/06 13:38:58;;;;;;;5.38;2.47;;;;;;;;;;5013770;28;20061;-72
2021/03/06 13:41:24;;;;;;;5.88;1.67;;;;;;;;;;5014346;28;20131;-71
2021/03/06 13:43:50;;;;;;;6.28;1.38;;;;;;;;;;5013970;28;20041;-71
2021/03/06 13:46:16;;;;;;;5.60;1.50;;;;;;;;;;4994914;28;20416;-71
2021/03/06 13:48:43;;;;;;;3.67;1.70;;;;;;;;;;5013935;28;20045;-71
2021/03/06 13:51:09;;;;;;;4.43;1.30;;;;;;;;;;5013537;28;20049;-71
2021/03/06 13:53:36;;;;;;;3.67;1.40;;;;;;;;;;5009031;28;20042;-72
2021/03/06 13:56:02;;;;;;;5.55;1.35;;;;;;;;;;5013408;28;20038;-71
2021/03/06 13:58:28;;;;;;;5.22;1.63;;;;;;;;;;5013548;28;20430;-71
2021/03/06 14:00:54;;;;;;;4.82;1.20;;;;;;;;;;4995327;28;20056;-73
2021/03/06 14:03:21;;;;;;;4.10;1.63;;;;;;;;;;5013868;28;20049;-71
2021/03/06 14:05:47;;;;;;;6.45;1.38;;;;;;;;;;5013825;28;20042;-71
2021/03/06 14:08:13;;;;;;;4.18;1.23;;;;;;;;;;5012585;28;20158;-71
2021/03/06 14:10:39;;;;;;;4.57;1.58;;;;;;;;;;4996174;28;20117;-71
2021/03/06 14:13:06;;;;;;;5.70;1.30;;;;;;;;;;5013090;28;20473;-71
2021/03/06 14:15:32;;;;;;;5.28;1.20;;;;;;;;;;4995933;28;20049;-71
2021/03/06 14:17:58;;;;;;;2.30;0.80;;;;;;;;;;5004767;28;20470;-71
2021/03/06 14:20:24;;;;;;;5.93;1.40;;;;;;;;;;5013328;28;20508;-71
2021/03/06 14:22:50;;;;;;;2.55;1.13;;;;;;;;;;5013595;28;20041;-71
2021/03/06 14:25:16;;;;;;;3.97;1.13;;;;;;;;;;5012899;28;20495;-71
2021/03/06 14:27:43;;;;;;;3.72;0.88;;;;;;;;;;4995847;28;20453;-71
2021/03/06 14:30:09;;;;;;;6.90;1.77;;;;;;;;;;5012835;28;20104;-71
2021/03/06 14:32:35;;;;;;;7.80;1.23;;;;;;;;;;5013336;28;20046;-71
2021/03/06 14:35:03;;;;;;;9.57;1.15;;;;;;;;;;5012535;28;20038;-71
2021/03/06 14:37:29;;;;;;;6.63;1.33;;;;;;;;;;5013071;28;20396;-71
2021/03/06 14:39:56;;;;;;;4.90;1.20;;;;;;;;;;5013292;28;20219;-71
2021/03/06 14:42:22;;;;;;;6.57;1.23;;;;;;;;;;5012357;28;20045;-71
2021/03/06 14:44:49;;;;;;;7.10;1.20;;;;;;;;;;5012809;28;20470;-71